那覇空港の過去48時間の天気

那覇空港 (Naha)

現在時刻: 9/17 20:18 JST (9/17 11:18 UTC) 以下の時間は現地時間です。

過去48時間のMETAR気象情報
時間 風向 風速(m/s) 視程 気温(℃) 湿度(%) 気圧(hPa) 天気現象
17 20:00 9 10km以上 28 79 1005
17 19:30 9 10km以上 28 84 1005
17 19:00 10 10km以上 28 79 1005
17 18:30 10 10km以上 28 79 1005
17 18:00 10 10km以上 28 79 1004
17 17:30 9 10km以上 29 79 1005
17 17:00 10 10km以上 29 74 1004 周辺でしゅう雨
17 16:30 9 10km以上 30 75 1004 周辺でしゅう雨
17 16:00 9 10km以上 29 74 1004 周辺でしゅう雨
17 15:30 9 10km以上 29 79 1004
17 15:00 10 10km以上 29 79 1004
17 14:30 11 10km以上 30 70 1004
17 14:00 12 10km以上 30 75 1003
17 13:30 11 10km以上 29 79 1004
17 13:00 11 10km以上 29 79 1004
17 12:30 10 10km以上 30 75 1004
17 12:00 12 10km以上 30 75 1005
17 11:30 10 10km以上 30 75 1005
17 11:00 10 10km以上 30 75 1006
17 10:30 9 10km以上 31 70 1006
17 10:00 8 10km以上 30 70 1006
17 09:30 9 10km以上 30 75 1006
17 09:00 8 10km以上 29 74 1006
17 08:30 北北東 8 10km以上 29 79 1005
17 08:00 北北東 7 10km以上 29 74 1005
17 07:30 北北東 8 10km以上 28 79 1005
17 07:00 北北東 8 10km以上 28 79 1004
17 06:30 北北東 7 10km以上 27 84 1004
17 06:00 北北東 7 10km以上 28 79 1004
17 05:30 北北東 7 10km以上 27 84 1004
17 05:00 北北東 8 10km以上 27 89 1004 周辺でしゅう雨
17 04:30 北北東 6 10km以上 28 84 1003 周辺でしゅう雨
17 04:00 北北東 5 10km以上 27 89 1004
17 03:30 北北東 5 10km以上 27 89 1003
17 03:00 北北東 5 10km以上 27 84 1003 周辺でしゅう雨
17 02:30 北東 5 10km以上 27 84 1003 周辺でしゅう雨
17 02:00 北北東 6 10km以上 27 89 1003 周辺でしゅう雨
17 01:30 北北東 5 10km以上 27 89 1003
17 01:00 北北東 6 10km以上 28 84 1003
17 00:30 北北東 6 10km以上 28 84 1003
17 00:00 北北東 6 10km以上 28 84 1003
16 23:30 北北東 7 10km以上 28 84 1003
16 23:00 北北東 7 10km以上 28 84 1003
16 22:30 8 10km以上 28 84 1003
16 22:00 6 10km以上 28 89 1004
16 21:30 8 10km以上 28 84 1004
16 21:00 8 10km以上 28 84 1004
16 20:30 8 10km以上 28 84 1004
16 20:00 9 10km以上 28 84 1003
16 19:30 9 10km以上 28 84 1003
16 19:00 9 10km以上 28 84 1003
16 18:30 9 10km以上 29 79 1003
16 18:00 8 10km以上 29 74 1003
16 17:30 9 10km以上 29 79 1002
16 17:00 9 10km以上 30 75 1002
16 16:30 9 10km以上 30 75 1002
16 16:00 10 10km以上 30 75 1002
16 15:30 10 10km以上 30 75 1002
16 15:00 10 10km以上 30 75 1002
16 14:30 11 10km以上 30 75 1002
16 14:00 11 10km以上 31 70 1002
16 13:30 11 10km以上 30 79 1002
16 13:00 10 10km以上 31 75 1002
16 12:30 11 10km以上 31 70 1002
16 12:00 9 10km以上 30 79 1003
16 11:30 10 10km以上 31 70 1003
16 11:00 北北東 8 10km以上 31 66 1003
16 10:30 8 10km以上 30 70 1003
16 10:00 北北東 8 10km以上 30 70 1003
16 09:30 北北東 9 10km以上 30 70 1003
16 09:00 北北東 8 10km以上 30 70 1003
16 08:30 北北東 8 10km以上 29 74 1003
16 08:00 北北東 7 10km以上 28 79 1003
16 07:30 北北東 8 10km以上 28 79 1002
16 07:00 北北東 5 10km以上 28 84 1002
16 06:30 北北東 6 10km以上 27 89 1002
16 06:00 北北東 7 10km以上 27 84 1002
16 05:30 北北東 8 10km以上 27 89 1002
16 05:00 9 10km以上 27 89 1002
16 04:30 北北東 8 10km以上 27 89 1002
16 04:00 北北東 8 10km以上 27 84 1002
16 03:30 北北東 8 10km以上 27 89 1002
16 03:00 北北東 8 10km以上 27 89 1002
16 02:30 9 10km以上 28 84 1002
16 02:00 北北東 8 10km以上 28 84 1002
16 01:30 北北東 9 10km以上 28 84 1002
16 01:00 北北東 8 10km以上 28 84 1002
16 00:30 北北東 8 10km以上 28 89 1003
16 00:00 北北東 8 10km以上 28 84 1003
15 23:30 北北東 7 10km以上 28 84 1003
15 23:00 北北東 7 10km以上 28 89 1003
15 22:30 北北東 7 10km以上 28 89 1003 弱いしゅう雨
15 22:00 北北東 7 10km以上 28 89 1003 弱いしゅう雨
15 21:30 北北東 6 10km以上 28 89 1003
15 21:00 北北東 6 10km以上 28 89 1003
15 20:30 北北東 6 10km以上 27 89 1003
ROAH 171100Z 01017KT 9999 FEW015 SCT020 BKN/// 28/24 Q1005 RMK 1CU015 3CU020 A2970
ROAH 171030Z 01018KT 9999 FEW015 BKN/// 28/25 Q1005 RMK 2CU015 A2969
ROAH 171000Z 01019KT 9999 FEW020 BKN/// 28/24 Q1005
ROAH 170930Z 01019KT 9999 FEW020 BKN/// 28/24 Q1005
ROAH 170900Z 36019KT 9999 FEW020 BKN/// 28/24 Q1004 RMK 1CU020 A2967
ROAH 170830Z 01017KT 9999 FEW020 BKN/// 29/25 Q1005
ROAH 170800Z 01019KT 9999 VCSH FEW020 SCT030 BKN/// 29/24 Q1004 RMK 1CU020 3CU030 A2967
ROAH 170730Z 01018KT 9999 VCSH FEW020 BKN/// 30/25 Q1004
ROAH 170700Z 01018KT 9999 VCSH SCT020 BKN040 29/24 Q1004 RMK 3CU020 6SC040 A2966
ROAH 170630Z 01018KT 9999 FEW025 SCT040 BKN/// 29/25 Q1004
ROAH 170600Z 01019KT 9999 FEW025 SCT040 BKN/// 29/25 Q1004
ROAH 170530Z 01021KT 9999 FEW025 BKN/// 30/24 Q1004
ROAH 170500Z 36023KT 9999 FEW025 BKN/// 30/25 Q1003 RMK 2CU025 A2964
ROAH 170430Z 36021KT 9999 FEW025 SCT040 BKN/// 29/25 Q1004 RMK 2CU025 4SC040 A2965
ROAH 170400Z 01021KT 9999 SCT025 SCT040 BKN/// 29/25 Q1004 RMK 3CU025 4SC040 A2966
ROAH 170330Z 01020KT 9999 SCT025 SCT050 BKN/// 30/25 Q1004
ROAH 170300Z 01023KT 9999 SCT025 SCT/// 30/25 Q1005
ROAH 170230Z 01020KT 9999 SCT030 30/25 Q1005 RMK 4CU030 A2970
ROAH 170200Z 01020KT 9999 SCT025 30/25 Q1006 RMK 4CU025 A2971
ROAH 170130Z 01017KT 9999 FEW020 BKN/// 31/25 Q1006
ROAH 170100Z 01015KT 9999 FEW020 BKN/// 30/24 Q1006 RMK 2CU020 A2972
ROAH 170030Z 01017KT 9999 FEW020 BKN/// 30/25 Q1006
ROAH 170000Z 01016KT 9999 FEW020 BKN/// 29/24 Q1006 RMK 1CU020 A2971
ROAH 162330Z 02015KT 9999 FEW015 SCT/// 29/25 Q1005 RMK 1CU015 A2970
ROAH 162300Z 03014KT 9999 FEW020 BKN/// 29/24 Q1005
ROAH 162230Z 02015KT 9999 FEW020 BKN/// 28/24 Q1005 RMK 1CU020 A2969
ROAH 162200Z 02015KT 9999 FEW015 BKN/// 28/24 Q1004 RMK 1CU015 A2966
ROAH 162130Z 02013KT 9999 FEW020 BKN/// 27/24 Q1004
ROAH 162100Z 02014KT 9999 FEW020 BKN/// 28/24 Q1004 RMK 1CU020 A2966
ROAH 162030Z 03014KT 9999 FEW020 BKN/// 27/24 Q1004
ROAH 162000Z 02016KT 9999 VCSH FEW015 SCT/// 27/25 Q1004 RMK 1CU015 A2965
ROAH 161930Z 02012KT 9999 VCSH FEW015 BKN/// 28/25 Q1003
ROAH 161900Z 02010KT 9999 FEW015 SCT/// 27/25 Q1004 RMK 1CU015 A2965
ROAH 161830Z 03010KT 9999 FEW020 27/25 Q1003 RMK 1CU020 A2964
ROAH 161800Z 03010KT 9999 VCSH FEW040 27/24 Q1003 RMK 1SC040 A2964
ROAH 161730Z 04010KT 9999 VCSH FEW030 27/24 Q1003 RMK 1CU030 A2964
ROAH 161700Z 02011KT 9999 VCSH FEW010 SCT040 27/25 Q1003 RMK 1CU010 3SC040 A2964
ROAH 161630Z 03009KT 9999 FEW010 SCT/// 27/25 Q1003 RMK 1CU010 A2964
ROAH 161600Z 03011KT 9999 FEW015 SCT/// 28/25 Q1003 RMK 2CU015 A2964
ROAH 161530Z 02012KT 9999 FEW015 SCT/// 28/25 Q1003
ROAH 161500Z 02011KT 9999 FEW015 SCT/// 28/25 Q1003
ROAH 161430Z 02013KT 9999 FEW015 SCT/// 28/25 Q1003
ROAH 161400Z 02013KT 9999 FEW015 BKN/// 28/25 Q1003 RMK 1CU015 A2964
ROAH 161330Z 01015KT 9999 FEW015 BKN/// 28/25 Q1003
ROAH 161300Z 01012KT 9999 FEW020 BKN/// 28/26 Q1004 RMK 2CU020 A2965
ROAH 161230Z 01016KT 9999 FEW015 BKN/// 28/25 Q1004
ROAH 161200Z 01016KT 9999 FEW015 BKN/// 28/25 Q1004 RMK 1CU015 A2965
ROAH 161130Z 01015KT 9999 FEW015 BKN/// 28/25 Q1004
ROAH 161100Z 01017KT 9999 FEW015 BKN/// 28/25 Q1003 RMK 1CU015 A2964
ROAH 161030Z 01017KT 9999 FEW020 BKN/// 28/25 Q1003 RMK 1CU020 A2963
ROAH 161000Z 01018KT 9999 FEW020 BKN/// 28/25 Q1003 RMK 1CU020 A2962
ROAH 160930Z 01018KT 9999 FEW020 BKN/// 29/25 Q1003
ROAH 160900Z 01016KT 9999 FEW010 BKN/// 29/24 Q1003 RMK 1CU010 A2962
ROAH 160830Z 01018KT 9999 FEW020 BKN/// 29/25 Q1002 RMK 1CU020 A2961
ROAH 160800Z 01018KT 9999 FEW020 BKN/// 30/25 Q1002
ROAH 160730Z 01018KT 9999 FEW020 BKN/// 30/25 Q1002
ROAH 160700Z 36019KT 9999 FEW020 BKN/// 30/25 Q1002 RMK 2CU020 A2960
ROAH 160630Z 36019KT 9999 FEW020 BKN/// 30/25 Q1002
ROAH 160600Z 01019KT 9999 FEW020 BKN/// 30/25 Q1002
ROAH 160530Z 01021KT 9999 FEW020 BKN/// 30/25 Q1002 RMK 2CU020 A2959
ROAH 160500Z 36021KT 9999 FEW020 BKN/// 31/25 Q1002 RMK 2CU020 A2960
ROAH 160430Z 36021KT 9999 FEW020 SCT/// 30/26 Q1002
ROAH 160400Z 36020KT 9999 FEW025 31/26 Q1002 RMK 1CU025 A2961
ROAH 160330Z 01021KT 9999 FEW025 31/25 Q1002 RMK 1CU025 A2961
ROAH 160300Z 01017KT 9999 FEW025 30/26 Q1003 RMK 1CU025 A2962
ROAH 160230Z 01019KT 9999 FEW025 31/25 Q1003 RMK 1CU025 A2962
ROAH 160200Z 02016KT 9999 FEW025 31/24 Q1003 RMK 1CU025 A2963
ROAH 160130Z 01016KT 9999 FEW025 30/24 Q1003 RMK 1CU025 A2963
ROAH 160100Z 02015KT 9999 FEW020 30/24 Q1003
ROAH 160030Z 02017KT 9999 FEW020 30/24 Q1003 RMK 1CU020 A2964
ROAH 160000Z 02016KT 9999 FEW020 30/24 Q1003 RMK 1CU020 A2963
ROAH 152330Z 03015KT 9999 FEW020 29/24 Q1003 RMK 2CU020 A2963
ROAH 152300Z 03014KT 9999 FEW010 SCT020 28/24 Q1003 RMK 1CU010 3CU020 A2962
ROAH 152230Z 02015KT 9999 FEW015 28/24 Q1002 RMK 1CU015 A2961
ROAH 152200Z 03010KT 9999 SCT015 28/25 Q1002 RMK 4CU015 A2961
ROAH 152130Z 03012KT 9999 FEW015 27/25 Q1002 RMK 2CU015 A2960
ROAH 152100Z 02013KT 9999 FEW015 27/24 Q1002 RMK 1CU015 A2960
ROAH 152030Z 02015KT 9999 SCT015 27/25 Q1002 RMK 3CU015 A2960
ROAH 152000Z 01018KT 9999 FEW015 27/25 Q1002 RMK 1CU015 A2959
ROAH 151930Z 02015KT 9999 FEW015 27/25 Q1002 RMK 1CU015 A2959
ROAH 151900Z 02015KT 9999 FEW015 27/24 Q1002 RMK 1CU015 A2959
ROAH 151830Z 02016KT 9999 FEW015 27/25 Q1002 RMK 1CU015 A2959
ROAH 151800Z 02016KT 9999 FEW015 27/25 Q1002 RMK 2CU015 A2959
ROAH 151730Z 01018KT 9999 FEW015 28/25 Q1002 RMK 2CU015 A2960
ROAH 151700Z 02015KT 9999 FEW020 28/25 Q1002 RMK 1CU020 A2960
ROAH 151630Z 02017KT 9999 FEW020 28/25 Q1002 RMK 1CU020 A2961
ROAH 151600Z 02016KT 9999 FEW020 28/25 Q1002 RMK 2CU020 A2961
ROAH 151530Z 02016KT 9999 FEW020 SCT/// 28/26 Q1003
ROAH 151500Z 02015KT 9999 FEW015 SCT/// 28/25 Q1003 RMK 1CU015 A2962
ROAH 151430Z 02014KT 9999 FEW015 SCT025 28/25 Q1003 RMK 1CU015 3CU025 A2962
ROAH 151400Z 02013KT 9999 FEW015 SCT025 BKN050 28/26 Q1003 RMK 1CU015 3CU025 5SC050 A2962
ROAH 151330Z 03013KT 9999 -SHRA FEW015 SCT025 BKN050 28/26 Q1003 RMK 1CU015 4CU025 6SC050 A2962
ROAH 151300Z 02014KT 9999 -SHRA FEW020 BKN025 28/26 Q1003 RMK 1CU020 6CU025 A2962
ROAH 151230Z 02011KT 9999 FEW020 BKN025 BKN/// 28/26 Q1003 RMK 1CU020 5CU025 A2963
ROAH 151200Z 02011KT 9999 FEW015 BKN020 BKN/// 28/26 Q1003 RMK 1CU015 5CU020 A2962
ROAH 151130Z 03011KT 9999 FEW020 SCT040 BKN150 27/25 Q1003 RMK 1CU020 3SC040 5AC150 A2962